sensor_id;sensor_type;location;lat;lon;timestamp;P1;durP1;ratioP1;P2;durP2;ratioP2
40863;SDS011;26582;47.524;19.012;2024-03-22T00:01:55;22.38;;;10.38;;
40863;SDS011;26582;47.524;19.012;2024-03-22T00:04:22;22.70;;;10.65;;
40863;SDS011;26582;47.524;19.012;2024-03-22T00:06:48;22.50;;;10.40;;
40863;SDS011;26582;47.524;19.012;2024-03-22T00:09:16;24.92;;;11.15;;
40863;SDS011;26582;47.524;19.012;2024-03-22T00:11:42;23.08;;;10.48;;
40863;SDS011;26582;47.524;19.012;2024-03-22T00:14:10;21.13;;;10.80;;
40863;SDS011;26582;47.524;19.012;2024-03-22T00:16:38;24.35;;;11.35;;
40863;SDS011;26582;47.524;19.012;2024-03-22T00:19:04;20.33;;;10.45;;
40863;SDS011;26582;47.524;19.012;2024-03-22T00:21:30;22.50;;;11.43;;
40863;SDS011;26582;47.524;19.012;2024-03-22T00:23:57;23.60;;;10.60;;
40863;SDS011;26582;47.524;19.012;2024-03-22T00:26:23;19.83;;;9.57;;
40863;SDS011;26582;47.524;19.012;2024-03-22T00:28:50;20.65;;;10.20;;
40863;SDS011;26582;47.524;19.012;2024-03-22T00:31:16;22.10;;;10.57;;
40863;SDS011;26582;47.524;19.012;2024-03-22T00:33:44;22.60;;;9.73;;
40863;SDS011;26582;47.524;19.012;2024-03-22T00:36:10;23.52;;;10.10;;
40863;SDS011;26582;47.524;19.012;2024-03-22T00:38:36;19.45;;;10.50;;
40863;SDS011;26582;47.524;19.012;2024-03-22T00:41:02;23.83;;;10.50;;
40863;SDS011;26582;47.524;19.012;2024-03-22T00:43:29;21.08;;;10.07;;
40863;SDS011;26582;47.524;19.012;2024-03-22T00:45:55;23.20;;;9.82;;
40863;SDS011;26582;47.524;19.012;2024-03-22T00:48:21;22.30;;;10.13;;
40863;SDS011;26582;47.524;19.012;2024-03-22T00:50:49;23.55;;;10.27;;
40863;SDS011;26582;47.524;19.012;2024-03-22T00:53:15;20.40;;;10.15;;
40863;SDS011;26582;47.524;19.012;2024-03-22T00:55:41;20.88;;;10.38;;
40863;SDS011;26582;47.524;19.012;2024-03-22T00:58:08;20.58;;;10.45;;
40863;SDS011;26582;47.524;19.012;2024-03-22T01:00:34;21.70;;;10.10;;
40863;SDS011;26582;47.524;19.012;2024-03-22T01:03:02;19.77;;;10.00;;
40863;SDS011;26582;47.524;19.012;2024-03-22T01:05:28;22.70;;;9.80;;
40863;SDS011;26582;47.524;19.012;2024-03-22T01:07:56;18.35;;;9.48;;
40863;SDS011;26582;47.524;19.012;2024-03-22T01:10:21;20.58;;;10.32;;
40863;SDS011;26582;47.524;19.012;2024-03-22T01:12:48;22.10;;;10.70;;
40863;SDS011;26582;47.524;19.012;2024-03-22T01:15:14;21.20;;;11.07;;
40863;SDS011;26582;47.524;19.012;2024-03-22T01:17:40;19.88;;;10.32;;
40863;SDS011;26582;47.524;19.012;2024-03-22T01:20:06;20.88;;;10.25;;
40863;SDS011;26582;47.524;19.012;2024-03-22T01:22:33;23.10;;;10.32;;
40863;SDS011;26582;47.524;19.012;2024-03-22T01:25:00;23.13;;;11.27;;
40863;SDS011;26582;47.524;19.012;2024-03-22T01:27:27;19.50;;;10.13;;
40863;SDS011;26582;47.524;19.012;2024-03-22T01:29:53;22.58;;;10.70;;
40863;SDS011;26582;47.524;19.012;2024-03-22T01:32:19;24.42;;;10.57;;
40863;SDS011;26582;47.524;19.012;2024-03-22T01:34:45;20.63;;;9.32;;
40863;SDS011;26582;47.524;19.012;2024-03-22T01:37:12;21.98;;;11.02;;
40863;SDS011;26582;47.524;19.012;2024-03-22T01:39:37;18.90;;;9.82;;
40863;SDS011;26582;47.524;19.012;2024-03-22T01:42:06;21.05;;;10.63;;
40863;SDS011;26582;47.524;19.012;2024-03-22T01:44:31;21.67;;;10.55;;
40863;SDS011;26582;47.524;19.012;2024-03-22T01:46:59;21.95;;;10.32;;
40863;SDS011;26582;47.524;19.012;2024-03-22T01:49:25;23.33;;;10.15;;
40863;SDS011;26582;47.524;19.012;2024-03-22T01:51:52;20.05;;;10.07;;
40863;SDS011;26582;47.524;19.012;2024-03-22T01:54:19;24.20;;;11.52;;
40863;SDS011;26582;47.524;19.012;2024-03-22T01:56:46;23.95;;;10.25;;
40863;SDS011;26582;47.524;19.012;2024-03-22T01:59:13;21.08;;;9.10;;
40863;SDS011;26582;47.524;19.012;2024-03-22T02:01:41;24.75;;;10.35;;
40863;SDS011;26582;47.524;19.012;2024-03-22T02:04:07;21.67;;;10.45;;
40863;SDS011;26582;47.524;19.012;2024-03-22T02:06:34;20.45;;;10.23;;
40863;SDS011;26582;47.524;19.012;2024-03-22T02:08:59;22.38;;;10.57;;
40863;SDS011;26582;47.524;19.012;2024-03-22T02:11:26;23.05;;;10.70;;
40863;SDS011;26582;47.524;19.012;2024-03-22T02:13:53;23.70;;;10.65;;
40863;SDS011;26582;47.524;19.012;2024-03-22T02:16:21;22.00;;;9.95;;
40863;SDS011;26582;47.524;19.012;2024-03-22T02:18:46;24.35;;;10.73;;
40863;SDS011;26582;47.524;19.012;2024-03-22T02:21:14;22.70;;;10.60;;
40863;SDS011;26582;47.524;19.012;2024-03-22T02:23:41;23.25;;;10.30;;
40863;SDS011;26582;47.524;19.012;2024-03-22T02:26:08;22.20;;;10.20;;
40863;SDS011;26582;47.524;19.012;2024-03-22T02:28:34;22.95;;;10.57;;
40863;SDS011;26582;47.524;19.012;2024-03-22T02:31:02;23.10;;;10.38;;
40863;SDS011;26582;47.524;19.012;2024-03-22T02:33:28;21.58;;;10.68;;
40863;SDS011;26582;47.524;19.012;2024-03-22T02:35:55;24.67;;;11.27;;
40863;SDS011;26582;47.524;19.012;2024-03-22T02:38:21;26.27;;;11.25;;
40863;SDS011;26582;47.524;19.012;2024-03-22T02:40:51;23.20;;;10.52;;
40863;SDS011;26582;47.524;19.012;2024-03-22T02:43:17;22.52;;;10.10;;
40863;SDS011;26582;47.524;19.012;2024-03-22T02:45:46;21.58;;;10.07;;
40863;SDS011;26582;47.524;19.012;2024-03-22T02:48:12;26.55;;;10.60;;
40863;SDS011;26582;47.524;19.012;2024-03-22T02:50:39;21.60;;;10.30;;
40863;SDS011;26582;47.524;19.012;2024-03-22T02:53:05;26.45;;;10.68;;
40863;SDS011;26582;47.524;19.012;2024-03-22T02:55:35;20.92;;;10.20;;
40863;SDS011;26582;47.524;19.012;2024-03-22T02:58:03;23.83;;;11.20;;
40863;SDS011;26582;47.524;19.012;2024-03-22T03:00:30;25.20;;;11.43;;
40863;SDS011;26582;47.524;19.012;2024-03-22T03:02:56;22.85;;;9.93;;
40863;SDS011;26582;47.524;19.012;2024-03-22T03:05:22;22.88;;;10.38;;
40863;SDS011;26582;47.524;19.012;2024-03-22T03:07:48;24.02;;;11.60;;
40863;SDS011;26582;47.524;19.012;2024-03-22T03:10:15;24.42;;;10.30;;
40863;SDS011;26582;47.524;19.012;2024-03-22T03:12:42;21.45;;;11.27;;
40863;SDS011;26582;47.524;19.012;2024-03-22T03:15:10;20.10;;;9.27;;
40863;SDS011;26582;47.524;19.012;2024-03-22T03:17:36;23.23;;;11.15;;
40863;SDS011;26582;47.524;19.012;2024-03-22T03:20:03;25.95;;;11.40;;
40863;SDS011;26582;47.524;19.012;2024-03-22T03:22:32;22.30;;;10.32;;
40863;SDS011;26582;47.524;19.012;2024-03-22T03:24:58;22.15;;;10.32;;
40863;SDS011;26582;47.524;19.012;2024-03-22T03:27:25;22.90;;;11.00;;
40863;SDS011;26582;47.524;19.012;2024-03-22T03:29:51;20.17;;;9.88;;
40863;SDS011;26582;47.524;19.012;2024-03-22T03:32:19;22.38;;;10.75;;
40863;SDS011;26582;47.524;19.012;2024-03-22T03:34:45;22.90;;;11.13;;
40863;SDS011;26582;47.524;19.012;2024-03-22T03:37:11;20.80;;;10.23;;
40863;SDS011;26582;47.524;19.012;2024-03-22T03:39:37;21.23;;;10.82;;
40863;SDS011;26582;47.524;19.012;2024-03-22T03:42:04;23.63;;;11.60;;
40863;SDS011;26582;47.524;19.012;2024-03-22T03:44:30;23.80;;;10.98;;
40863;SDS011;26582;47.524;19.012;2024-03-22T03:46:56;22.20;;;11.20;;
40863;SDS011;26582;47.524;19.012;2024-03-22T03:49:23;22.85;;;11.15;;
40863;SDS011;26582;47.524;19.012;2024-03-22T03:51:50;19.98;;;10.57;;
40863;SDS011;26582;47.524;19.012;2024-03-22T03:54:16;20.05;;;9.98;;
40863;SDS011;26582;47.524;19.012;2024-03-22T03:56:42;21.83;;;10.60;;
40863;SDS011;26582;47.524;19.012;2024-03-22T03:59:08;26.05;;;11.50;;
40863;SDS011;26582;47.524;19.012;2024-03-22T04:01:35;23.25;;;11.02;;
40863;SDS011;26582;47.524;19.012;2024-03-22T04:04:01;25.95;;;12.30;;
40863;SDS011;26582;47.524;19.012;2024-03-22T04:06:29;24.55;;;12.38;;
40863;SDS011;26582;47.524;19.012;2024-03-22T04:08:55;21.98;;;11.85;;
40863;SDS011;26582;47.524;19.012;2024-03-22T04:11:22;22.55;;;12.90;;
40863;SDS011;26582;47.524;19.012;2024-03-22T04:13:48;26.40;;;13.60;;
40863;SDS011;26582;47.524;19.012;2024-03-22T04:16:15;22.52;;;13.45;;
40863;SDS011;26582;47.524;19.012;2024-03-22T04:18:40;23.45;;;13.27;;
40863;SDS011;26582;47.524;19.012;2024-03-22T04:21:07;23.65;;;13.95;;
40863;SDS011;26582;47.524;19.012;2024-03-22T04:23:34;24.23;;;13.20;;
40863;SDS011;26582;47.524;19.012;2024-03-22T04:26:01;23.73;;;13.20;;
40863;SDS011;26582;47.524;19.012;2024-03-22T04:28:28;24.25;;;13.00;;
40863;SDS011;26582;47.524;19.012;2024-03-22T04:30:58;22.98;;;13.65;;
40863;SDS011;26582;47.524;19.012;2024-03-22T04:33:26;22.65;;;13.10;;
40863;SDS011;26582;47.524;19.012;2024-03-22T04:35:53;25.25;;;13.57;;
40863;SDS011;26582;47.524;19.012;2024-03-22T04:38:19;24.52;;;13.65;;
40863;SDS011;26582;47.524;19.012;2024-03-22T04:40:47;24.08;;;12.27;;
40863;SDS011;26582;47.524;19.012;2024-03-22T04:43:14;25.42;;;13.70;;
40863;SDS011;26582;47.524;19.012;2024-03-22T04:45:41;27.35;;;13.68;;
40863;SDS011;26582;47.524;19.012;2024-03-22T04:48:08;21.67;;;13.02;;
40863;SDS011;26582;47.524;19.012;2024-03-22T04:50:33;22.70;;;12.18;;
40863;SDS011;26582;47.524;19.012;2024-03-22T04:53:00;27.35;;;13.30;;
40863;SDS011;26582;47.524;19.012;2024-03-22T04:55:26;24.45;;;13.45;;
40863;SDS011;26582;47.524;19.012;2024-03-22T04:57:54;23.90;;;13.13;;
40863;SDS011;26582;47.524;19.012;2024-03-22T05:00:20;21.98;;;12.95;;
40863;SDS011;26582;47.524;19.012;2024-03-22T05:02:46;25.52;;;12.82;;
40863;SDS011;26582;47.524;19.012;2024-03-22T05:05:13;24.17;;;13.88;;
40863;SDS011;26582;47.524;19.012;2024-03-22T05:07:39;22.77;;;13.20;;
40863;SDS011;26582;47.524;19.012;2024-03-22T05:10:05;25.00;;;14.18;;
40863;SDS011;26582;47.524;19.012;2024-03-22T05:12:34;25.50;;;13.53;;
40863;SDS011;26582;47.524;19.012;2024-03-22T05:15:01;25.63;;;14.10;;
40863;SDS011;26582;47.524;19.012;2024-03-22T05:17:28;21.87;;;14.07;;
40863;SDS011;26582;47.524;19.012;2024-03-22T05:19:54;26.13;;;13.93;;
40863;SDS011;26582;47.524;19.012;2024-03-22T05:22:21;23.75;;;13.73;;
40863;SDS011;26582;47.524;19.012;2024-03-22T05:24:47;23.05;;;12.80;;
40863;SDS011;26582;47.524;19.012;2024-03-22T05:27:13;24.38;;;13.00;;
40863;SDS011;26582;47.524;19.012;2024-03-22T05:29:39;26.60;;;13.13;;
40863;SDS011;26582;47.524;19.012;2024-03-22T05:32:08;23.55;;;13.57;;
40863;SDS011;26582;47.524;19.012;2024-03-22T05:34:33;23.42;;;12.88;;
40863;SDS011;26582;47.524;19.012;2024-03-22T05:37:00;24.80;;;13.30;;
40863;SDS011;26582;47.524;19.012;2024-03-22T05:39:26;24.00;;;13.27;;
40863;SDS011;26582;47.524;19.012;2024-03-22T05:41:52;28.80;;;13.85;;
40863;SDS011;26582;47.524;19.012;2024-03-22T05:44:19;20.55;;;11.75;;
40863;SDS011;26582;47.524;19.012;2024-03-22T05:46:47;22.88;;;12.77;;
40863;SDS011;26582;47.524;19.012;2024-03-22T05:49:14;22.10;;;13.43;;
40863;SDS011;26582;47.524;19.012;2024-03-22T05:51:41;23.53;;;13.47;;
40863;SDS011;26582;47.524;19.012;2024-03-22T05:54:07;24.58;;;13.48;;
40863;SDS011;26582;47.524;19.012;2024-03-22T05:56:34;25.70;;;13.77;;
40863;SDS011;26582;47.524;19.012;2024-03-22T05:58:59;22.23;;;13.20;;
40863;SDS011;26582;47.524;19.012;2024-03-22T06:01:27;21.98;;;12.73;;
40863;SDS011;26582;47.524;19.012;2024-03-22T06:03:52;27.40;;;16.67;;
40863;SDS011;26582;47.524;19.012;2024-03-22T06:06:20;27.27;;;15.77;;
40863;SDS011;26582;47.524;19.012;2024-03-22T06:08:50;23.27;;;12.95;;
40863;SDS011;26582;47.524;19.012;2024-03-22T06:11:17;21.20;;;12.98;;
40863;SDS011;26582;47.524;19.012;2024-03-22T06:13:43;20.08;;;13.23;;
40863;SDS011;26582;47.524;19.012;2024-03-22T06:16:10;23.58;;;13.10;;
40863;SDS011;26582;47.524;19.012;2024-03-22T06:18:36;23.48;;;13.23;;
40863;SDS011;26582;47.524;19.012;2024-03-22T06:21:03;23.92;;;12.75;;
40863;SDS011;26582;47.524;19.012;2024-03-22T06:23:31;24.05;;;13.68;;
40863;SDS011;26582;47.524;19.012;2024-03-22T06:25:58;21.35;;;13.48;;
40863;SDS011;26582;47.524;19.012;2024-03-22T06:28:25;26.50;;;14.27;;
40863;SDS011;26582;47.524;19.012;2024-03-22T06:30:54;23.48;;;13.75;;
40863;SDS011;26582;47.524;19.012;2024-03-22T06:33:19;22.63;;;13.38;;
40863;SDS011;26582;47.524;19.012;2024-03-22T06:35:46;23.38;;;13.27;;
40863;SDS011;26582;47.524;19.012;2024-03-22T06:38:12;24.80;;;13.23;;
40863;SDS011;26582;47.524;19.012;2024-03-22T06:40:41;22.63;;;13.40;;
40863;SDS011;26582;47.524;19.012;2024-03-22T06:43:06;22.90;;;13.23;;
40863;SDS011;26582;47.524;19.012;2024-03-22T06:45:34;39.72;;;20.55;;
40863;SDS011;26582;47.524;19.012;2024-03-22T06:47:59;27.65;;;15.18;;
40863;SDS011;26582;47.524;19.012;2024-03-22T06:50:26;23.20;;;13.88;;
40863;SDS011;26582;47.524;19.012;2024-03-22T06:52:52;22.98;;;13.82;;
40863;SDS011;26582;47.524;19.012;2024-03-22T06:55:19;25.10;;;13.15;;
40863;SDS011;26582;47.524;19.012;2024-03-22T06:57:46;21.38;;;13.10;;
40863;SDS011;26582;47.524;19.012;2024-03-22T07:00:14;22.23;;;12.63;;
40863;SDS011;26582;47.524;19.012;2024-03-22T07:02:40;24.08;;;13.48;;
40863;SDS011;26582;47.524;19.012;2024-03-22T07:05:07;21.75;;;12.45;;
40863;SDS011;26582;47.524;19.012;2024-03-22T07:07:33;24.23;;;13.60;;
40863;SDS011;26582;47.524;19.012;2024-03-22T07:10:00;27.73;;;14.30;;
40863;SDS011;26582;47.524;19.012;2024-03-22T07:12:26;27.00;;;13.75;;
40863;SDS011;26582;47.524;19.012;2024-03-22T07:14:55;21.70;;;13.35;;
40863;SDS011;26582;47.524;19.012;2024-03-22T07:17:20;21.83;;;13.63;;
40863;SDS011;26582;47.524;19.012;2024-03-22T07:19:49;21.35;;;14.20;;
40863;SDS011;26582;47.524;19.012;2024-03-22T07:22:16;24.40;;;13.82;;
40863;SDS011;26582;47.524;19.012;2024-03-22T07:24:42;24.45;;;12.63;;
40863;SDS011;26582;47.524;19.012;2024-03-22T07:27:08;24.50;;;13.80;;
40863;SDS011;26582;47.524;19.012;2024-03-22T07:29:35;45.53;;;22.15;;
40863;SDS011;26582;47.524;19.012;2024-03-22T07:32:02;25.35;;;14.82;;
40863;SDS011;26582;47.524;19.012;2024-03-22T07:34:29;22.35;;;13.38;;
40863;SDS011;26582;47.524;19.012;2024-03-22T07:36:55;24.85;;;14.18;;
40863;SDS011;26582;47.524;19.012;2024-03-22T07:39:21;22.70;;;13.95;;
40863;SDS011;26582;47.524;19.012;2024-03-22T07:41:47;25.58;;;13.48;;
40863;SDS011;26582;47.524;19.012;2024-03-22T07:44:15;20.00;;;13.13;;
40863;SDS011;26582;47.524;19.012;2024-03-22T07:46:42;24.55;;;13.45;;
40863;SDS011;26582;47.524;19.012;2024-03-22T07:49:11;24.48;;;13.43;;
40863;SDS011;26582;47.524;19.012;2024-03-22T07:51:37;24.02;;;14.05;;
40863;SDS011;26582;47.524;19.012;2024-03-22T07:54:04;28.48;;;14.88;;
40863;SDS011;26582;47.524;19.012;2024-03-22T07:56:30;23.63;;;14.10;;
40863;SDS011;26582;47.524;19.012;2024-03-22T07:58:57;22.00;;;13.45;;
40863;SDS011;26582;47.524;19.012;2024-03-22T08:01:22;26.00;;;14.30;;
40863;SDS011;26582;47.524;19.012;2024-03-22T08:03:49;22.20;;;14.25;;
40863;SDS011;26582;47.524;19.012;2024-03-22T08:06:17;26.30;;;14.15;;
40863;SDS011;26582;47.524;19.012;2024-03-22T08:08:44;23.35;;;14.43;;
40863;SDS011;26582;47.524;19.012;2024-03-22T08:11:10;26.13;;;15.20;;
40863;SDS011;26582;47.524;19.012;2024-03-22T08:13:36;22.00;;;13.48;;
40863;SDS011;26582;47.524;19.012;2024-03-22T08:16:02;24.42;;;13.98;;
40863;SDS011;26582;47.524;19.012;2024-03-22T08:18:30;25.55;;;14.40;;
40863;SDS011;26582;47.524;19.012;2024-03-22T08:20:57;23.25;;;14.15;;
40863;SDS011;26582;47.524;19.012;2024-03-22T08:23:25;21.52;;;13.57;;
40863;SDS011;26582;47.524;19.012;2024-03-22T08:25:51;23.92;;;14.50;;
40863;SDS011;26582;47.524;19.012;2024-03-22T08:28:18;24.25;;;14.88;;
40863;SDS011;26582;47.524;19.012;2024-03-22T08:30:43;24.60;;;14.45;;
40863;SDS011;26582;47.524;19.012;2024-03-22T08:33:10;22.73;;;14.25;;
40863;SDS011;26582;47.524;19.012;2024-03-22T08:35:36;26.98;;;15.73;;
40863;SDS011;26582;47.524;19.012;2024-03-22T08:38:03;24.75;;;15.13;;
40863;SDS011;26582;47.524;19.012;2024-03-22T08:40:31;23.23;;;14.20;;
40863;SDS011;26582;47.524;19.012;2024-03-22T08:42:59;25.25;;;15.07;;
40863;SDS011;26582;47.524;19.012;2024-03-22T08:45:24;27.08;;;14.93;;
40863;SDS011;26582;47.524;19.012;2024-03-22T08:47:51;24.10;;;14.50;;
40863;SDS011;26582;47.524;19.012;2024-03-22T08:50:17;22.45;;;14.10;;
40863;SDS011;26582;47.524;19.012;2024-03-22T08:52:44;24.00;;;14.02;;
40863;SDS011;26582;47.524;19.012;2024-03-22T08:55:09;24.95;;;14.85;;
40863;SDS011;26582;47.524;19.012;2024-03-22T08:57:37;26.38;;;15.05;;
40863;SDS011;26582;47.524;19.012;2024-03-22T09:00:04;25.02;;;14.90;;
40863;SDS011;26582;47.524;19.012;2024-03-22T09:02:33;25.17;;;14.77;;
40863;SDS011;26582;47.524;19.012;2024-03-22T09:04:59;23.38;;;14.82;;
40863;SDS011;26582;47.524;19.012;2024-03-22T09:07:26;21.90;;;13.85;;
40863;SDS011;26582;47.524;19.012;2024-03-22T09:09:52;21.90;;;13.32;;
40863;SDS011;26582;47.524;19.012;2024-03-22T09:12:18;24.80;;;15.05;;
40863;SDS011;26582;47.524;19.012;2024-03-22T09:14:46;25.52;;;15.18;;
40863;SDS011;26582;47.524;19.012;2024-03-22T09:17:12;27.13;;;17.30;;
40863;SDS011;26582;47.524;19.012;2024-03-22T09:19:38;23.15;;;14.20;;
40863;SDS011;26582;47.524;19.012;2024-03-22T09:22:05;23.20;;;13.20;;
40863;SDS011;26582;47.524;19.012;2024-03-22T09:24:31;23.80;;;15.32;;
40863;SDS011;26582;47.524;19.012;2024-03-22T09:26:57;25.25;;;14.98;;
40863;SDS011;26582;47.524;19.012;2024-03-22T09:29:24;24.17;;;14.38;;
40863;SDS011;26582;47.524;19.012;2024-03-22T09:31:52;24.85;;;15.02;;
40863;SDS011;26582;47.524;19.012;2024-03-22T09:34:18;22.25;;;15.07;;
40863;SDS011;26582;47.524;19.012;2024-03-22T09:36:45;23.48;;;15.30;;
40863;SDS011;26582;47.524;19.012;2024-03-22T09:39:10;25.52;;;15.35;;
40863;SDS011;26582;47.524;19.012;2024-03-22T09:41:39;22.95;;;15.93;;
40863;SDS011;26582;47.524;19.012;2024-03-22T09:44:07;24.35;;;14.35;;
40863;SDS011;26582;47.524;19.012;2024-03-22T09:46:40;27.98;;;18.08;;
40863;SDS011;26582;47.524;19.012;2024-03-22T09:49:09;23.38;;;15.70;;
40863;SDS011;26582;47.524;19.012;2024-03-22T09:51:36;27.75;;;17.38;;
40863;SDS011;26582;47.524;19.012;2024-03-22T09:54:03;25.77;;;15.77;;
40863;SDS011;26582;47.524;19.012;2024-03-22T09:56:30;23.05;;;14.85;;
40863;SDS011;26582;47.524;19.012;2024-03-22T09:58:56;22.08;;;14.48;;
40863;SDS011;26582;47.524;19.012;2024-03-22T10:01:23;23.33;;;14.85;;
40863;SDS011;26582;47.524;19.012;2024-03-22T10:03:49;24.38;;;15.80;;
40863;SDS011;26582;47.524;19.012;2024-03-22T10:06:19;24.92;;;15.20;;
40863;SDS011;26582;47.524;19.012;2024-03-22T10:08:44;22.27;;;14.65;;
40863;SDS011;26582;47.524;19.012;2024-03-22T10:11:11;22.77;;;13.95;;
40863;SDS011;26582;47.524;19.012;2024-03-22T10:13:37;22.83;;;14.27;;
40863;SDS011;26582;47.524;19.012;2024-03-22T10:16:05;22.45;;;13.80;;
40863;SDS011;26582;47.524;19.012;2024-03-22T10:18:32;22.90;;;13.98;;
40863;SDS011;26582;47.524;19.012;2024-03-22T10:21:00;22.55;;;13.45;;
40863;SDS011;26582;47.524;19.012;2024-03-22T10:23:27;18.25;;;12.35;;
40863;SDS011;26582;47.524;19.012;2024-03-22T10:25:55;22.57;;;14.27;;
40863;SDS011;26582;47.524;19.012;2024-03-22T10:28:21;21.23;;;13.00;;
40863;SDS011;26582;47.524;19.012;2024-03-22T10:30:50;20.75;;;11.95;;
40863;SDS011;26582;47.524;19.012;2024-03-22T10:33:16;22.65;;;13.02;;
40863;SDS011;26582;47.524;19.012;2024-03-22T10:35:45;18.45;;;11.70;;
40863;SDS011;26582;47.524;19.012;2024-03-22T10:38:12;21.23;;;12.82;;
40863;SDS011;26582;47.524;19.012;2024-03-22T10:40:41;21.52;;;12.25;;
40863;SDS011;26582;47.524;19.012;2024-03-22T10:43:10;19.23;;;12.45;;
40863;SDS011;26582;47.524;19.012;2024-03-22T10:45:37;16.92;;;11.18;;
40863;SDS011;26582;47.524;19.012;2024-03-22T10:48:06;15.43;;;9.82;;
40863;SDS011;26582;47.524;19.012;2024-03-22T10:50:36;15.48;;;10.55;;
40863;SDS011;26582;47.524;19.012;2024-03-22T10:53:06;16.77;;;11.02;;
40863;SDS011;26582;47.524;19.012;2024-03-22T10:55:35;17.33;;;12.00;;
40863;SDS011;26582;47.524;19.012;2024-03-22T10:58:04;17.25;;;11.80;;
40863;SDS011;26582;47.524;19.012;2024-03-22T11:00:31;18.48;;;11.98;;
40863;SDS011;26582;47.524;19.012;2024-03-22T11:02:58;21.15;;;12.93;;
40863;SDS011;26582;47.524;19.012;2024-03-22T11:05:25;20.98;;;13.70;;
40863;SDS011;26582;47.524;19.012;2024-03-22T11:07:58;21.60;;;13.45;;
40863;SDS011;26582;47.524;19.012;2024-03-22T11:10:26;19.85;;;12.57;;
40863;SDS011;26582;47.524;19.012;2024-03-22T11:12:55;19.52;;;12.70;;
40863;SDS011;26582;47.524;19.012;2024-03-22T11:15:23;21.42;;;13.38;;
40863;SDS011;26582;47.524;19.012;2024-03-22T11:17:49;16.90;;;11.23;;
40863;SDS011;26582;47.524;19.012;2024-03-22T11:20:16;23.25;;;13.07;;
40863;SDS011;26582;47.524;19.012;2024-03-22T11:22:42;19.23;;;12.43;;
40863;SDS011;26582;47.524;19.012;2024-03-22T11:25:09;20.98;;;12.23;;
40863;SDS011;26582;47.524;19.012;2024-03-22T11:27:35;20.00;;;11.88;;
40863;SDS011;26582;47.524;19.012;2024-03-22T11:30:01;18.73;;;12.07;;
40863;SDS011;26582;47.524;19.012;2024-03-22T11:32:29;18.13;;;11.32;;
40863;SDS011;26582;47.524;19.012;2024-03-22T11:34:56;20.50;;;12.25;;
40863;SDS011;26582;47.524;19.012;2024-03-22T11:37:22;16.10;;;10.32;;
40863;SDS011;26582;47.524;19.012;2024-03-22T11:39:49;18.17;;;10.88;;
40863;SDS011;26582;47.524;19.012;2024-03-22T11:42:14;13.30;;;8.60;;
40863;SDS011;26582;47.524;19.012;2024-03-22T11:44:43;13.70;;;9.10;;
40863;SDS011;26582;47.524;19.012;2024-03-22T11:47:11;14.20;;;9.35;;
40863;SDS011;26582;47.524;19.012;2024-03-22T11:49:39;16.13;;;11.13;;
40863;SDS011;26582;47.524;19.012;2024-03-22T11:52:07;13.68;;;9.95;;
40863;SDS011;26582;47.524;19.012;2024-03-22T11:54:34;13.90;;;10.50;;
40863;SDS011;26582;47.524;19.012;2024-03-22T11:56:59;13.48;;;9.48;;
40863;SDS011;26582;47.524;19.012;2024-03-22T11:59:29;13.00;;;9.60;;
40863;SDS011;26582;47.524;19.012;2024-03-22T12:01:54;15.02;;;10.15;;
40863;SDS011;26582;47.524;19.012;2024-03-22T12:04:22;13.63;;;10.43;;
40863;SDS011;26582;47.524;19.012;2024-03-22T12:06:49;17.00;;;11.50;;
40863;SDS011;26582;47.524;19.012;2024-03-22T12:09:16;18.90;;;11.43;;
40863;SDS011;26582;47.524;19.012;2024-03-22T12:11:41;19.25;;;12.27;;
40863;SDS011;26582;47.524;19.012;2024-03-22T12:14:08;18.17;;;11.80;;
40863;SDS011;26582;47.524;19.012;2024-03-22T12:16:34;17.30;;;11.63;;
40863;SDS011;26582;47.524;19.012;2024-03-22T12:19:01;16.45;;;11.63;;
40863;SDS011;26582;47.524;19.012;2024-03-22T12:21:28;18.25;;;11.95;;
40863;SDS011;26582;47.524;19.012;2024-03-22T12:23:56;18.42;;;12.52;;
40863;SDS011;26582;47.524;19.012;2024-03-22T12:26:22;16.20;;;11.35;;
40863;SDS011;26582;47.524;19.012;2024-03-22T12:28:49;17.65;;;11.70;;
40863;SDS011;26582;47.524;19.012;2024-03-22T12:31:16;14.15;;;10.98;;
40863;SDS011;26582;47.524;19.012;2024-03-22T12:33:43;18.42;;;11.65;;
40863;SDS011;26582;47.524;19.012;2024-03-22T12:36:09;15.05;;;10.88;;
40863;SDS011;26582;47.524;19.012;2024-03-22T12:38:36;17.83;;;11.20;;
40863;SDS011;26582;47.524;19.012;2024-03-22T12:41:03;18.48;;;12.18;;
40863;SDS011;26582;47.524;19.012;2024-03-22T12:43:31;18.02;;;11.85;;
40863;SDS011;26582;47.524;19.012;2024-03-22T12:45:56;15.85;;;10.88;;
40863;SDS011;26582;47.524;19.012;2024-03-22T12:48:23;17.27;;;11.05;;
40863;SDS011;26582;47.524;19.012;2024-03-22T12:50:49;16.17;;;10.48;;
40863;SDS011;26582;47.524;19.012;2024-03-22T12:53:16;17.40;;;10.90;;
40863;SDS011;26582;47.524;19.012;2024-03-22T12:55:42;19.65;;;11.85;;
40863;SDS011;26582;47.524;19.012;2024-03-22T12:58:10;18.50;;;10.45;;
40863;SDS011;26582;47.524;19.012;2024-03-22T13:00:35;19.25;;;10.73;;
40863;SDS011;26582;47.524;19.012;2024-03-22T13:03:02;23.77;;;13.93;;
40863;SDS011;26582;47.524;19.012;2024-03-22T13:05:28;20.15;;;10.50;;
40863;SDS011;26582;47.524;19.012;2024-03-22T13:07:56;16.25;;;10.88;;
40863;SDS011;26582;47.524;19.012;2024-03-22T13:10:22;17.33;;;11.25;;
40863;SDS011;26582;47.524;19.012;2024-03-22T13:12:48;15.13;;;10.88;;
40863;SDS011;26582;47.524;19.012;2024-03-22T13:15:16;19.88;;;10.70;;
40863;SDS011;26582;47.524;19.012;2024-03-22T13:17:42;15.23;;;9.80;;
40863;SDS011;26582;47.524;19.012;2024-03-22T13:20:08;17.38;;;11.40;;
40863;SDS011;26582;47.524;19.012;2024-03-22T13:22:37;15.60;;;9.40;;
40863;SDS011;26582;47.524;19.012;2024-03-22T13:25:03;14.35;;;9.93;;
40863;SDS011;26582;47.524;19.012;2024-03-22T13:27:32;15.77;;;10.30;;
40863;SDS011;26582;47.524;19.012;2024-03-22T13:29:59;16.50;;;10.45;;
40863;SDS011;26582;47.524;19.012;2024-03-22T13:32:27;15.77;;;11.05;;
40863;SDS011;26582;47.524;19.012;2024-03-22T13:34:52;13.57;;;9.88;;
40863;SDS011;26582;47.524;19.012;2024-03-22T13:37:19;12.68;;;10.27;;
40863;SDS011;26582;47.524;19.012;2024-03-22T13:39:47;13.35;;;10.20;;
40863;SDS011;26582;47.524;19.012;2024-03-22T13:42:14;14.68;;;10.35;;
40863;SDS011;26582;47.524;19.012;2024-03-22T13:44:41;14.98;;;10.60;;
40863;SDS011;26582;47.524;19.012;2024-03-22T13:47:08;13.88;;;10.30;;
40863;SDS011;26582;47.524;19.012;2024-03-22T13:49:35;13.65;;;9.82;;
40863;SDS011;26582;47.524;19.012;2024-03-22T13:52:03;14.55;;;9.55;;
40863;SDS011;26582;47.524;19.012;2024-03-22T13:54:29;17.02;;;11.45;;
40863;SDS011;26582;47.524;19.012;2024-03-22T13:56:56;12.20;;;9.60;;
40863;SDS011;26582;47.524;19.012;2024-03-22T13:59:22;13.85;;;9.18;;
40863;SDS011;26582;47.524;19.012;2024-03-22T14:01:49;10.48;;;8.70;;
40863;SDS011;26582;47.524;19.012;2024-03-22T14:04:14;12.35;;;8.65;;
40863;SDS011;26582;47.524;19.012;2024-03-22T14:06:42;13.25;;;9.68;;
40863;SDS011;26582;47.524;19.012;2024-03-22T14:09:08;21.63;;;12.20;;